Update 03.02. : Die Wetterhütte (Außentemp. Fühler) wird jetzt mittels Solarpanel und Lüfter bei Sonnenschein aktiv belüftet.
Update 19.07. : Eine eigene Kamera für das Wetterbild installiert (HiKam A7 verwaltet vom Synology NAS)
Besuchen Sie den Menüpunkt "Almanach / History" hier gibt es viele interessante Statistiken aus den Daten meiner Wetterstation (seit 2011)

Rindlberg West Mehr Informationen Rindlberg West


Stuetzi - Rindlberg Ost Mehr Informationen Stuetzi - Rindlberg Ost


Regenradar Mehr Informationen rain snow radar


Sie finden meine Wetter-Infos auch auf:

Weather Underground

AWEKAS



METAR-Meldungen aus der Umgebung

   
LOWL - Linz
Aktualisierung: 15-12-2018 16:20
Stark bewölkt  
Stark bewölkt  
   Wind: Westen 9.3 km/h
Wind: Westen 9.3 km/h
Temperatur: -1°C
Gefühlt: -4°C
Taupunkt: -4°C
Luftfeuchte: 80%
Luftdruck: 1024 hPa
Wolken: Stark bewölkt
Sichtbarkeit: Mehr als 10 km
Bewölkung: leicht bewölkt 1600 ft,
Stark bewölkt 4500 ft
LOWL 151520Z 27005KT 9999 FEW016 BKN045 M01/M04 Q1024 R08/19//95 NOSIG
LOWW - Vienna
Aktualisierung: 15-12-2018 16:20
Leichter Schneefall, Stark bewölkt  
Leichter Schneefall, Stark bewölkt  
   Wind: NW 25.9 km/h
Wind: NW 25.9 km/h
Temperatur: -1°C
Gefühlt: -7°C
Taupunkt: -3°C
Luftfeuchte: 86%
Luftdruck: 1022 hPa
Wolken: Stark bewölkt
Sichtbarkeit: 8 km
Bewölkung: leicht bewölkt 700 ft,
Stark bewölkt 3600 ft
LOWW 151520Z 32014KT 8000 -SN FEW007 BKN036 M01/M03 Q1022 R88/690295 NOSIG
 

Script entwickelt von  Saratoga-weather.org Angepasst für das Template von  Weerstation Leuven